sensor_id;sensor_type;location;lat;lon;timestamp;P1;durP1;ratioP1;P2;durP2;ratioP2
23388;SDS011;11867;51.198;11.966;2023-06-14T00:00:21;4.55;;;2.72;;
23388;SDS011;11867;51.198;11.966;2023-06-14T00:01:45;3.58;;;2.50;;
23388;SDS011;11867;51.198;11.966;2023-06-14T00:03:09;4.20;;;2.72;;
23388;SDS011;11867;51.198;11.966;2023-06-14T00:04:33;4.20;;;2.50;;
23388;SDS011;11867;51.198;11.966;2023-06-14T00:05:56;3.58;;;2.30;;
23388;SDS011;11867;51.198;11.966;2023-06-14T00:07:21;5.55;;;2.75;;
23388;SDS011;11867;51.198;11.966;2023-06-14T00:08:56;8.32;;;2.70;;
23388;SDS011;11867;51.198;11.966;2023-06-14T00:10:18;5.32;;;2.83;;
23388;SDS011;11867;51.198;11.966;2023-06-14T00:11:41;4.72;;;2.63;;
23388;SDS011;11867;51.198;11.966;2023-06-14T00:13:04;5.68;;;2.60;;
23388;SDS011;11867;51.198;11.966;2023-06-14T00:14:26;3.20;;;2.55;;
23388;SDS011;11867;51.198;11.966;2023-06-14T00:15:49;3.17;;;2.72;;
23388;SDS011;11867;51.198;11.966;2023-06-14T00:17:16;6.20;;;2.40;;
23388;SDS011;11867;51.198;11.966;2023-06-14T00:18:38;2.65;;;2.42;;
23388;SDS011;11867;51.198;11.966;2023-06-14T00:20:02;6.88;;;2.58;;
23388;SDS011;11867;51.198;11.966;2023-06-14T00:21:26;7.50;;;2.50;;
23388;SDS011;11867;51.198;11.966;2023-06-14T00:22:50;7.45;;;2.42;;
23388;SDS011;11867;51.198;11.966;2023-06-14T00:24:11;3.88;;;2.60;;
23388;SDS011;11867;51.198;11.966;2023-06-14T00:25:34;5.10;;;2.20;;
23388;SDS011;11867;51.198;11.966;2023-06-14T00:26:58;2.45;;;2.25;;
23388;SDS011;11867;51.198;11.966;2023-06-14T00:28:20;3.90;;;2.20;;
23388;SDS011;11867;51.198;11.966;2023-06-14T00:29:43;2.35;;;2.10;;
23388;SDS011;11867;51.198;11.966;2023-06-14T00:31:05;3.03;;;2.28;;
23388;SDS011;11867;51.198;11.966;2023-06-14T00:32:29;3.90;;;2.38;;
23388;SDS011;11867;51.198;11.966;2023-06-14T00:33:51;3.00;;;2.35;;
23388;SDS011;11867;51.198;11.966;2023-06-14T00:35:14;2.55;;;2.00;;
23388;SDS011;11867;51.198;11.966;2023-06-14T00:36:37;3.35;;;2.28;;
23388;SDS011;11867;51.198;11.966;2023-06-14T00:37:59;4.13;;;2.40;;
23388;SDS011;11867;51.198;11.966;2023-06-14T00:39:23;1.90;;;1.67;;
23388;SDS011;11867;51.198;11.966;2023-06-14T00:40:46;3.63;;;1.90;;
23388;SDS011;11867;51.198;11.966;2023-06-14T00:42:08;3.08;;;2.03;;
23388;SDS011;11867;51.198;11.966;2023-06-14T00:43:31;3.67;;;2.42;;
23388;SDS011;11867;51.198;11.966;2023-06-14T00:44:56;2.45;;;2.08;;
23388;SDS011;11867;51.198;11.966;2023-06-14T00:46:18;2.67;;;2.13;;
23388;SDS011;11867;51.198;11.966;2023-06-14T00:47:43;2.92;;;1.90;;
23388;SDS011;11867;51.198;11.966;2023-06-14T00:49:08;4.50;;;2.20;;
23388;SDS011;11867;51.198;11.966;2023-06-14T00:50:31;4.03;;;2.47;;
23388;SDS011;11867;51.198;11.966;2023-06-14T00:51:55;3.63;;;2.20;;
23388;SDS011;11867;51.198;11.966;2023-06-14T00:53:18;4.13;;;2.22;;
23388;SDS011;11867;51.198;11.966;2023-06-14T00:54:42;4.57;;;2.33;;
23388;SDS011;11867;51.198;11.966;2023-06-14T00:56:05;4.47;;;2.00;;
23388;SDS011;11867;51.198;11.966;2023-06-14T00:57:27;4.07;;;1.90;;
23388;SDS011;11867;51.198;11.966;2023-06-14T00:58:51;5.20;;;2.10;;
23388;SDS011;11867;51.198;11.966;2023-06-14T01:00:14;5.05;;;2.08;;
23388;SDS011;11867;51.198;11.966;2023-06-14T01:01:37;4.57;;;2.10;;
23388;SDS011;11867;51.198;11.966;2023-06-14T01:03:01;2.67;;;1.70;;
23388;SDS011;11867;51.198;11.966;2023-06-14T01:04:24;5.35;;;2.10;;
23388;SDS011;11867;51.198;11.966;2023-06-14T01:05:47;2.20;;;1.95;;
23388;SDS011;11867;51.198;11.966;2023-06-14T01:07:11;7.32;;;2.10;;
23388;SDS011;11867;51.198;11.966;2023-06-14T01:08:41;6.57;;;2.45;;
23388;SDS011;11867;51.198;11.966;2023-06-14T01:10:18;2.67;;;2.10;;
23388;SDS011;11867;51.198;11.966;2023-06-14T01:11:50;2.08;;;1.92;;
23388;SDS011;11867;51.198;11.966;2023-06-14T01:13:20;7.78;;;2.33;;
23388;SDS011;11867;51.198;11.966;2023-06-14T01:14:44;3.13;;;2.05;;
23388;SDS011;11867;51.198;11.966;2023-06-14T01:16:10;2.00;;;1.80;;
23388;SDS011;11867;51.198;11.966;2023-06-14T01:17:34;3.30;;;1.90;;
23388;SDS011;11867;51.198;11.966;2023-06-14T01:18:58;4.25;;;2.67;;
23388;SDS011;11867;51.198;11.966;2023-06-14T01:20:27;2.72;;;1.92;;
23388;SDS011;11867;51.198;11.966;2023-06-14T01:21:51;2.03;;;1.83;;
23388;SDS011;11867;51.198;11.966;2023-06-14T01:23:15;2.38;;;2.03;;
23388;SDS011;11867;51.198;11.966;2023-06-14T01:24:38;3.72;;;2.15;;
23388;SDS011;11867;51.198;11.966;2023-06-14T01:26:01;3.30;;;2.20;;
23388;SDS011;11867;51.198;11.966;2023-06-14T01:27:25;2.90;;;2.20;;
23388;SDS011;11867;51.198;11.966;2023-06-14T01:28:50;3.60;;;2.50;;
23388;SDS011;11867;51.198;11.966;2023-06-14T01:30:20;2.42;;;2.20;;
23388;SDS011;11867;51.198;11.966;2023-06-14T01:31:44;2.38;;;2.08;;
23388;SDS011;11867;51.198;11.966;2023-06-14T01:33:09;3.35;;;2.38;;
23388;SDS011;11867;51.198;11.966;2023-06-14T01:34:31;3.10;;;2.13;;
23388;SDS011;11867;51.198;11.966;2023-06-14T01:35:54;4.57;;;2.00;;
23388;SDS011;11867;51.198;11.966;2023-06-14T01:37:16;2.97;;;2.17;;
23388;SDS011;11867;51.198;11.966;2023-06-14T01:38:42;2.42;;;2.15;;
23388;SDS011;11867;51.198;11.966;2023-06-14T01:40:07;4.85;;;2.08;;
23388;SDS011;11867;51.198;11.966;2023-06-14T01:41:32;3.22;;;1.83;;
23388;SDS011;11867;51.198;11.966;2023-06-14T01:42:55;2.30;;;2.00;;
23388;SDS011;11867;51.198;11.966;2023-06-14T01:44:19;2.92;;;2.10;;
23388;SDS011;11867;51.198;11.966;2023-06-14T01:45:44;4.32;;;2.15;;
23388;SDS011;11867;51.198;11.966;2023-06-14T01:47:08;2.83;;;2.42;;
23388;SDS011;11867;51.198;11.966;2023-06-14T01:48:31;2.60;;;2.13;;
23388;SDS011;11867;51.198;11.966;2023-06-14T01:49:55;2.30;;;2.10;;
23388;SDS011;11867;51.198;11.966;2023-06-14T01:51:18;5.47;;;2.25;;
23388;SDS011;11867;51.198;11.966;2023-06-14T01:52:39;3.80;;;2.20;;
23388;SDS011;11867;51.198;11.966;2023-06-14T01:54:04;5.85;;;2.00;;
23388;SDS011;11867;51.198;11.966;2023-06-14T01:55:27;3.25;;;2.40;;
23388;SDS011;11867;51.198;11.966;2023-06-14T01:56:49;2.88;;;2.38;;
23388;SDS011;11867;51.198;11.966;2023-06-14T01:58:12;2.83;;;2.17;;
23388;SDS011;11867;51.198;11.966;2023-06-14T01:59:34;5.53;;;2.35;;
23388;SDS011;11867;51.198;11.966;2023-06-14T02:00:57;2.67;;;2.40;;
23388;SDS011;11867;51.198;11.966;2023-06-14T02:02:22;3.13;;;2.17;;
23388;SDS011;11867;51.198;11.966;2023-06-14T02:03:45;3.20;;;2.25;;
23388;SDS011;11867;51.198;11.966;2023-06-14T02:05:08;5.82;;;2.50;;
23388;SDS011;11867;51.198;11.966;2023-06-14T02:06:30;4.20;;;2.22;;
23388;SDS011;11867;51.198;11.966;2023-06-14T02:07:53;4.70;;;2.80;;
23388;SDS011;11867;51.198;11.966;2023-06-14T02:09:16;3.10;;;2.45;;
23388;SDS011;11867;51.198;11.966;2023-06-14T02:10:39;3.88;;;2.50;;
23388;SDS011;11867;51.198;11.966;2023-06-14T02:12:01;3.75;;;2.33;;
23388;SDS011;11867;51.198;11.966;2023-06-14T02:13:24;4.68;;;2.20;;
23388;SDS011;11867;51.198;11.966;2023-06-14T02:14:47;4.82;;;2.33;;
23388;SDS011;11867;51.198;11.966;2023-06-14T02:16:10;2.25;;;2.03;;
23388;SDS011;11867;51.198;11.966;2023-06-14T02:17:33;3.25;;;2.28;;
23388;SDS011;11867;51.198;11.966;2023-06-14T02:18:56;2.28;;;2.17;;
23388;SDS011;11867;51.198;11.966;2023-06-14T02:20:19;3.22;;;2.47;;
23388;SDS011;11867;51.198;11.966;2023-06-14T02:21:41;3.30;;;2.30;;
23388;SDS011;11867;51.198;11.966;2023-06-14T02:23:04;3.47;;;1.90;;
23388;SDS011;11867;51.198;11.966;2023-06-14T02:24:30;4.22;;;2.35;;
23388;SDS011;11867;51.198;11.966;2023-06-14T02:25:52;2.75;;;2.55;;
23388;SDS011;11867;51.198;11.966;2023-06-14T02:27:15;5.63;;;2.75;;
23388;SDS011;11867;51.198;11.966;2023-06-14T02:28:37;5.00;;;2.38;;
23388;SDS011;11867;51.198;11.966;2023-06-14T02:30:00;3.33;;;2.38;;
23388;SDS011;11867;51.198;11.966;2023-06-14T02:31:23;4.57;;;2.63;;
23388;SDS011;11867;51.198;11.966;2023-06-14T02:32:46;4.57;;;2.75;;
23388;SDS011;11867;51.198;11.966;2023-06-14T02:34:10;2.63;;;2.38;;
23388;SDS011;11867;51.198;11.966;2023-06-14T02:35:33;3.70;;;2.60;;
23388;SDS011;11867;51.198;11.966;2023-06-14T02:36:56;2.67;;;2.47;;
23388;SDS011;11867;51.198;11.966;2023-06-14T02:38:19;6.32;;;3.03;;
23388;SDS011;11867;51.198;11.966;2023-06-14T02:39:43;2.72;;;2.45;;
23388;SDS011;11867;51.198;11.966;2023-06-14T02:41:07;3.55;;;2.67;;
23388;SDS011;11867;51.198;11.966;2023-06-14T02:42:29;2.90;;;2.40;;
23388;SDS011;11867;51.198;11.966;2023-06-14T02:43:52;4.03;;;2.70;;
23388;SDS011;11867;51.198;11.966;2023-06-14T02:45:14;2.58;;;2.38;;
23388;SDS011;11867;51.198;11.966;2023-06-14T02:46:36;3.38;;;2.72;;
23388;SDS011;11867;51.198;11.966;2023-06-14T02:47:59;5.30;;;2.88;;
23388;SDS011;11867;51.198;11.966;2023-06-14T02:49:22;3.17;;;2.60;;
23388;SDS011;11867;51.198;11.966;2023-06-14T02:50:45;2.90;;;2.40;;
23388;SDS011;11867;51.198;11.966;2023-06-14T02:52:07;6.70;;;2.80;;
23388;SDS011;11867;51.198;11.966;2023-06-14T02:53:30;2.55;;;2.35;;
23388;SDS011;11867;51.198;11.966;2023-06-14T02:54:54;3.45;;;2.83;;
23388;SDS011;11867;51.198;11.966;2023-06-14T02:56:17;3.03;;;2.60;;
23388;SDS011;11867;51.198;11.966;2023-06-14T02:57:39;5.95;;;2.80;;
23388;SDS011;11867;51.198;11.966;2023-06-14T02:59:02;4.13;;;2.58;;
23388;SDS011;11867;51.198;11.966;2023-06-14T03:00:25;2.88;;;2.60;;
23388;SDS011;11867;51.198;11.966;2023-06-14T03:01:48;4.35;;;3.13;;
23388;SDS011;11867;51.198;11.966;2023-06-14T03:03:10;4.72;;;2.70;;
23388;SDS011;11867;51.198;11.966;2023-06-14T03:04:36;3.83;;;2.60;;
23388;SDS011;11867;51.198;11.966;2023-06-14T03:05:59;7.38;;;3.20;;
23388;SDS011;11867;51.198;11.966;2023-06-14T03:07:25;4.00;;;2.80;;
23388;SDS011;11867;51.198;11.966;2023-06-14T03:08:49;5.45;;;2.90;;
23388;SDS011;11867;51.198;11.966;2023-06-14T03:10:12;2.85;;;2.55;;
23388;SDS011;11867;51.198;11.966;2023-06-14T03:11:36;3.97;;;3.15;;
23388;SDS011;11867;51.198;11.966;2023-06-14T03:12:58;4.25;;;3.03;;
23388;SDS011;11867;51.198;11.966;2023-06-14T03:14:22;5.93;;;3.30;;
23388;SDS011;11867;51.198;11.966;2023-06-14T03:15:44;3.40;;;3.05;;
23388;SDS011;11867;51.198;11.966;2023-06-14T03:17:07;5.22;;;2.80;;
23388;SDS011;11867;51.198;11.966;2023-06-14T03:18:31;3.65;;;2.80;;
23388;SDS011;11867;51.198;11.966;2023-06-14T03:19:57;4.28;;;2.95;;
23388;SDS011;11867;51.198;11.966;2023-06-14T03:21:19;2.83;;;2.63;;
23388;SDS011;11867;51.198;11.966;2023-06-14T03:22:43;4.03;;;3.08;;
23388;SDS011;11867;51.198;11.966;2023-06-14T03:24:07;4.50;;;3.10;;
23388;SDS011;11867;51.198;11.966;2023-06-14T03:25:32;5.03;;;2.67;;
23388;SDS011;11867;51.198;11.966;2023-06-14T03:26:57;5.97;;;3.00;;
23388;SDS011;11867;51.198;11.966;2023-06-14T03:28:20;5.47;;;3.25;;
23388;SDS011;11867;51.198;11.966;2023-06-14T03:29:42;4.07;;;3.30;;
23388;SDS011;11867;51.198;11.966;2023-06-14T03:31:05;4.60;;;3.28;;
23388;SDS011;11867;51.198;11.966;2023-06-14T03:32:27;6.22;;;3.15;;
23388;SDS011;11867;51.198;11.966;2023-06-14T03:33:50;3.63;;;3.00;;
23388;SDS011;11867;51.198;11.966;2023-06-14T03:35:12;5.30;;;2.83;;
23388;SDS011;11867;51.198;11.966;2023-06-14T03:36:38;3.65;;;2.88;;
23388;SDS011;11867;51.198;11.966;2023-06-14T03:38:02;3.92;;;3.15;;
23388;SDS011;11867;51.198;11.966;2023-06-14T03:39:25;3.58;;;3.00;;
23388;SDS011;11867;51.198;11.966;2023-06-14T03:40:49;4.63;;;3.03;;
23388;SDS011;11867;51.198;11.966;2023-06-14T03:42:12;4.20;;;3.00;;
23388;SDS011;11867;51.198;11.966;2023-06-14T03:43:34;4.35;;;3.40;;
23388;SDS011;11867;51.198;11.966;2023-06-14T03:44:57;3.47;;;3.10;;
23388;SDS011;11867;51.198;11.966;2023-06-14T03:46:20;6.47;;;3.33;;
23388;SDS011;11867;51.198;11.966;2023-06-14T03:47:42;3.85;;;3.42;;
23388;SDS011;11867;51.198;11.966;2023-06-14T03:49:05;4.07;;;3.03;;
23388;SDS011;11867;51.198;11.966;2023-06-14T03:50:27;3.67;;;2.83;;
23388;SDS011;11867;51.198;11.966;2023-06-14T03:51:50;5.00;;;3.00;;
23388;SDS011;11867;51.198;11.966;2023-06-14T03:53:13;4.90;;;3.10;;
23388;SDS011;11867;51.198;11.966;2023-06-14T03:54:36;4.32;;;2.80;;
23388;SDS011;11867;51.198;11.966;2023-06-14T03:56:03;3.53;;;3.00;;
23388;SDS011;11867;51.198;11.966;2023-06-14T03:57:25;4.63;;;3.55;;
23388;SDS011;11867;51.198;11.966;2023-06-14T03:58:48;3.25;;;2.95;;
23388;SDS011;11867;51.198;11.966;2023-06-14T04:00:11;4.80;;;3.15;;
23388;SDS011;11867;51.198;11.966;2023-06-14T04:01:34;5.22;;;3.10;;
23388;SDS011;11867;51.198;11.966;2023-06-14T04:02:57;4.13;;;3.60;;
23388;SDS011;11867;51.198;11.966;2023-06-14T04:04:19;5.63;;;3.33;;
23388;SDS011;11867;51.198;11.966;2023-06-14T04:05:42;6.13;;;3.25;;
23388;SDS011;11867;51.198;11.966;2023-06-14T04:07:06;4.43;;;3.00;;
23388;SDS011;11867;51.198;11.966;2023-06-14T04:08:30;3.20;;;2.90;;
23388;SDS011;11867;51.198;11.966;2023-06-14T04:09:52;4.60;;;3.63;;
23388;SDS011;11867;51.198;11.966;2023-06-14T04:11:16;5.00;;;3.10;;
23388;SDS011;11867;51.198;11.966;2023-06-14T04:12:38;3.42;;;3.13;;
23388;SDS011;11867;51.198;11.966;2023-06-14T04:14:05;4.22;;;3.30;;
23388;SDS011;11867;51.198;11.966;2023-06-14T04:15:28;5.90;;;3.42;;
23388;SDS011;11867;51.198;11.966;2023-06-14T04:16:51;4.32;;;3.17;;
23388;SDS011;11867;51.198;11.966;2023-06-14T04:18:14;3.90;;;3.50;;
23388;SDS011;11867;51.198;11.966;2023-06-14T04:19:37;4.28;;;3.20;;
23388;SDS011;11867;51.198;11.966;2023-06-14T04:20:59;4.13;;;3.38;;
23388;SDS011;11867;51.198;11.966;2023-06-14T04:22:22;3.58;;;3.08;;
23388;SDS011;11867;51.198;11.966;2023-06-14T04:23:43;3.65;;;2.78;;
23388;SDS011;11867;51.198;11.966;2023-06-14T04:25:07;5.25;;;3.10;;
23388;SDS011;11867;51.198;11.966;2023-06-14T04:26:31;3.03;;;2.72;;
23388;SDS011;11867;51.198;11.966;2023-06-14T04:27:55;5.13;;;3.08;;
23388;SDS011;11867;51.198;11.966;2023-06-14T04:29:18;3.58;;;2.72;;
23388;SDS011;11867;51.198;11.966;2023-06-14T04:30:41;5.50;;;2.97;;
23388;SDS011;11867;51.198;11.966;2023-06-14T04:32:04;4.90;;;2.80;;
23388;SDS011;11867;51.198;11.966;2023-06-14T04:33:31;3.58;;;2.80;;
23388;SDS011;11867;51.198;11.966;2023-06-14T04:34:53;4.97;;;3.35;;
23388;SDS011;11867;51.198;11.966;2023-06-14T04:36:16;8.40;;;3.20;;
23388;SDS011;11867;51.198;11.966;2023-06-14T04:37:39;3.75;;;2.70;;
23388;SDS011;11867;51.198;11.966;2023-06-14T04:39:03;3.63;;;3.28;;
23388;SDS011;11867;51.198;11.966;2023-06-14T04:40:26;3.72;;;3.38;;
23388;SDS011;11867;51.198;11.966;2023-06-14T04:41:49;3.45;;;2.50;;
23388;SDS011;11867;51.198;11.966;2023-06-14T04:43:14;3.47;;;3.03;;
23388;SDS011;11867;51.198;11.966;2023-06-14T04:44:39;4.65;;;3.15;;
23388;SDS011;11867;51.198;11.966;2023-06-14T04:46:01;3.00;;;2.63;;
23388;SDS011;11867;51.198;11.966;2023-06-14T04:47:27;3.90;;;2.92;;
23388;SDS011;11867;51.198;11.966;2023-06-14T04:48:51;18.02;;;5.22;;
23388;SDS011;11867;51.198;11.966;2023-06-14T04:50:13;4.78;;;2.78;;
23388;SDS011;11867;51.198;11.966;2023-06-14T04:51:36;5.10;;;2.97;;
23388;SDS011;11867;51.198;11.966;2023-06-14T04:52:59;4.18;;;2.90;;
23388;SDS011;11867;51.198;11.966;2023-06-14T04:54:22;8.88;;;3.03;;
23388;SDS011;11867;51.198;11.966;2023-06-14T04:55:44;5.45;;;3.05;;
23388;SDS011;11867;51.198;11.966;2023-06-14T04:57:09;3.00;;;2.70;;
23388;SDS011;11867;51.198;11.966;2023-06-14T04:58:35;4.13;;;3.30;;
23388;SDS011;11867;51.198;11.966;2023-06-14T04:59:59;4.30;;;3.20;;
23388;SDS011;11867;51.198;11.966;2023-06-14T05:01:26;4.53;;;3.17;;
23388;SDS011;11867;51.198;11.966;2023-06-14T05:02:48;3.50;;;2.47;;
23388;SDS011;11867;51.198;11.966;2023-06-14T05:04:12;3.72;;;2.78;;
23388;SDS011;11867;51.198;11.966;2023-06-14T05:05:35;4.97;;;2.55;;
23388;SDS011;11867;51.198;11.966;2023-06-14T05:06:57;4.13;;;3.10;;
23388;SDS011;11867;51.198;11.966;2023-06-14T05:08:21;3.08;;;2.78;;
23388;SDS011;11867;51.198;11.966;2023-06-14T05:09:46;5.03;;;3.08;;
23388;SDS011;11867;51.198;11.966;2023-06-14T05:11:07;3.42;;;2.72;;
23388;SDS011;11867;51.198;11.966;2023-06-14T05:12:32;4.07;;;2.85;;
23388;SDS011;11867;51.198;11.966;2023-06-14T05:13:55;3.47;;;2.72;;
23388;SDS011;11867;51.198;11.966;2023-06-14T05:15:19;6.35;;;3.45;;
23388;SDS011;11867;51.198;11.966;2023-06-14T05:16:42;2.72;;;2.53;;
23388;SDS011;11867;51.198;11.966;2023-06-14T05:18:05;4.00;;;2.80;;
23388;SDS011;11867;51.198;11.966;2023-06-14T05:19:31;3.67;;;3.25;;
23388;SDS011;11867;51.198;11.966;2023-06-14T05:20:54;6.20;;;3.03;;
23388;SDS011;11867;51.198;11.966;2023-06-14T05:22:15;3.47;;;2.85;;
23388;SDS011;11867;51.198;11.966;2023-06-14T05:23:38;3.97;;;3.03;;
23388;SDS011;11867;51.198;11.966;2023-06-14T05:25:02;3.55;;;3.00;;
23388;SDS011;11867;51.198;11.966;2023-06-14T05:26:25;3.50;;;3.20;;
23388;SDS011;11867;51.198;11.966;2023-06-14T05:27:51;6.20;;;3.22;;
23388;SDS011;11867;51.198;11.966;2023-06-14T05:29:14;3.92;;;3.10;;
23388;SDS011;11867;51.198;11.966;2023-06-14T05:30:37;3.50;;;3.20;;
23388;SDS011;11867;51.198;11.966;2023-06-14T05:32:01;8.38;;;3.45;;
23388;SDS011;11867;51.198;11.966;2023-06-14T05:33:24;6.63;;;3.15;;
23388;SDS011;11867;51.198;11.966;2023-06-14T05:34:46;4.13;;;3.30;;
23388;SDS011;11867;51.198;11.966;2023-06-14T05:36:08;3.20;;;2.90;;
23388;SDS011;11867;51.198;11.966;2023-06-14T05:37:31;3.90;;;3.50;;
23388;SDS011;11867;51.198;11.966;2023-06-14T05:38:54;6.03;;;3.25;;
23388;SDS011;11867;51.198;11.966;2023-06-14T05:40:19;7.18;;;3.20;;
23388;SDS011;11867;51.198;11.966;2023-06-14T05:41:42;7.25;;;3.22;;
23388;SDS011;11867;51.198;11.966;2023-06-14T05:43:05;4.85;;;3.67;;
23388;SDS011;11867;51.198;11.966;2023-06-14T05:44:28;8.52;;;3.88;;
23388;SDS011;11867;51.198;11.966;2023-06-14T05:45:51;3.85;;;3.03;;
23388;SDS011;11867;51.198;11.966;2023-06-14T05:47:14;5.95;;;3.20;;
23388;SDS011;11867;51.198;11.966;2023-06-14T05:48:37;7.28;;;3.50;;
23388;SDS011;11867;51.198;11.966;2023-06-14T05:49:59;9.10;;;3.50;;
23388;SDS011;11867;51.198;11.966;2023-06-14T05:51:22;6.13;;;3.35;;
23388;SDS011;11867;51.198;11.966;2023-06-14T05:52:47;5.93;;;3.70;;
23388;SDS011;11867;51.198;11.966;2023-06-14T05:54:10;7.22;;;3.75;;
23388;SDS011;11867;51.198;11.966;2023-06-14T05:55:32;5.85;;;3.63;;
23388;SDS011;11867;51.198;11.966;2023-06-14T05:56:55;5.43;;;3.40;;
23388;SDS011;11867;51.198;11.966;2023-06-14T05:58:24;10.50;;;3.47;;
23388;SDS011;11867;51.198;11.966;2023-06-14T05:59:46;6.63;;;3.60;;
23388;SDS011;11867;51.198;11.966;2023-06-14T06:01:09;6.95;;;3.80;;
23388;SDS011;11867;51.198;11.966;2023-06-14T06:02:33;11.30;;;3.67;;
23388;SDS011;11867;51.198;11.966;2023-06-14T06:03:56;8.93;;;3.70;;
23388;SDS011;11867;51.198;11.966;2023-06-14T06:05:25;5.68;;;3.55;;
23388;SDS011;11867;51.198;11.966;2023-06-14T06:06:47;5.57;;;3.70;;
23388;SDS011;11867;51.198;11.966;2023-06-14T06:08:10;4.57;;;3.85;;
23388;SDS011;11867;51.198;11.966;2023-06-14T06:09:33;4.80;;;3.88;;
23388;SDS011;11867;51.198;11.966;2023-06-14T06:10:55;4.55;;;4.15;;
23388;SDS011;11867;51.198;11.966;2023-06-14T06:12:18;4.82;;;3.30;;
23388;SDS011;11867;51.198;11.966;2023-06-14T06:13:41;5.85;;;3.63;;
23388;SDS011;11867;51.198;11.966;2023-06-14T06:15:04;6.43;;;3.95;;
23388;SDS011;11867;51.198;11.966;2023-06-14T06:16:27;5.20;;;4.07;;
23388;SDS011;11867;51.198;11.966;2023-06-14T06:17:50;4.00;;;3.70;;
23388;SDS011;11867;51.198;11.966;2023-06-14T06:19:17;8.50;;;3.60;;
23388;SDS011;11867;51.198;11.966;2023-06-14T06:20:39;5.63;;;3.95;;
23388;SDS011;11867;51.198;11.966;2023-06-14T06:22:02;5.03;;;4.03;;
23388;SDS011;11867;51.198;11.966;2023-06-14T06:23:27;10.02;;;4.18;;
23388;SDS011;11867;51.198;11.966;2023-06-14T06:24:49;4.30;;;3.90;;
23388;SDS011;11867;51.198;11.966;2023-06-14T06:26:12;4.47;;;3.88;;
23388;SDS011;11867;51.198;11.966;2023-06-14T06:27:34;5.95;;;4.00;;
23388;SDS011;11867;51.198;11.966;2023-06-14T06:29:03;5.38;;;3.50;;
23388;SDS011;11867;51.198;11.966;2023-06-14T06:30:26;6.43;;;3.67;;
23388;SDS011;11867;51.198;11.966;2023-06-14T06:31:49;5.25;;;4.57;;
23388;SDS011;11867;51.198;11.966;2023-06-14T06:33:12;5.95;;;4.22;;
23388;SDS011;11867;51.198;11.966;2023-06-14T06:34:35;4.40;;;4.03;;
23388;SDS011;11867;51.198;11.966;2023-06-14T06:35:58;6.82;;;4.10;;
23388;SDS011;11867;51.198;11.966;2023-06-14T06:37:21;6.53;;;4.03;;
23388;SDS011;11867;51.198;11.966;2023-06-14T06:38:44;5.65;;;4.13;;
23388;SDS011;11867;51.198;11.966;2023-06-14T06:40:08;4.38;;;3.88;;
23388;SDS011;11867;51.198;11.966;2023-06-14T06:41:30;7.80;;;4.28;;
23388;SDS011;11867;51.198;11.966;2023-06-14T06:42:54;4.65;;;3.95;;
23388;SDS011;11867;51.198;11.966;2023-06-14T06:44:18;5.03;;;3.70;;
23388;SDS011;11867;51.198;11.966;2023-06-14T06:45:41;4.10;;;3.65;;
23388;SDS011;11867;51.198;11.966;2023-06-14T06:47:04;4.47;;;3.85;;
23388;SDS011;11867;51.198;11.966;2023-06-14T06:48:26;5.50;;;4.22;;
23388;SDS011;11867;51.198;11.966;2023-06-14T06:49:50;7.05;;;4.15;;
23388;SDS011;11867;51.198;11.966;2023-06-14T06:51:13;7.13;;;4.10;;
23388;SDS011;11867;51.198;11.966;2023-06-14T06:52:36;5.32;;;3.97;;
23388;SDS011;11867;51.198;11.966;2023-06-14T06:53:59;4.43;;;4.03;;
23388;SDS011;11867;51.198;11.966;2023-06-14T06:55:22;6.10;;;4.40;;
23388;SDS011;11867;51.198;11.966;2023-06-14T06:56:45;5.47;;;4.93;;
23388;SDS011;11867;51.198;11.966;2023-06-14T06:58:08;7.10;;;4.43;;
23388;SDS011;11867;51.198;11.966;2023-06-14T06:59:32;6.20;;;4.35;;
23388;SDS011;11867;51.198;11.966;2023-06-14T07:00:56;6.38;;;4.18;;
23388;SDS011;11867;51.198;11.966;2023-06-14T07:02:18;5.25;;;4.00;;
23388;SDS011;11867;51.198;11.966;2023-06-14T07:03:41;5.13;;;3.72;;
23388;SDS011;11867;51.198;11.966;2023-06-14T07:05:05;7.30;;;4.22;;
23388;SDS011;11867;51.198;11.966;2023-06-14T07:06:28;4.65;;;4.22;;
23388;SDS011;11867;51.198;11.966;2023-06-14T07:07:51;7.32;;;4.40;;
23388;SDS011;11867;51.198;11.966;2023-06-14T07:09:18;4.65;;;4.13;;
23388;SDS011;11867;51.198;11.966;2023-06-14T07:10:41;5.15;;;4.22;;
23388;SDS011;11867;51.198;11.966;2023-06-14T07:12:04;4.22;;;3.83;;
23388;SDS011;11867;51.198;11.966;2023-06-14T07:13:28;6.30;;;4.30;;
23388;SDS011;11867;51.198;11.966;2023-06-14T07:14:52;6.28;;;4.25;;
23388;SDS011;11867;51.198;11.966;2023-06-14T07:16:15;7.00;;;4.18;;
23388;SDS011;11867;51.198;11.966;2023-06-14T07:17:38;4.70;;;4.05;;
23388;SDS011;11867;51.198;11.966;2023-06-14T07:19:01;6.20;;;3.95;;
23388;SDS011;11867;51.198;11.966;2023-06-14T07:20:24;4.38;;;3.40;;
23388;SDS011;11867;51.198;11.966;2023-06-14T07:21:47;5.57;;;4.00;;
23388;SDS011;11867;51.198;11.966;2023-06-14T07:23:10;4.57;;;3.80;;
23388;SDS011;11867;51.198;11.966;2023-06-14T07:24:33;5.35;;;4.00;;
23388;SDS011;11867;51.198;11.966;2023-06-14T07:25:57;5.95;;;3.80;;
23388;SDS011;11867;51.198;11.966;2023-06-14T07:27:20;6.28;;;3.90;;
23388;SDS011;11867;51.198;11.966;2023-06-14T07:28:43;6.20;;;4.00;;
23388;SDS011;11867;51.198;11.966;2023-06-14T07:30:09;8.77;;;4.10;;
23388;SDS011;11867;51.198;11.966;2023-06-14T07:31:32;4.93;;;4.47;;
23388;SDS011;11867;51.198;11.966;2023-06-14T07:32:55;7.47;;;4.85;;
23388;SDS011;11867;51.198;11.966;2023-06-14T07:34:19;5.72;;;4.05;;
23388;SDS011;11867;51.198;11.966;2023-06-14T07:35:42;4.95;;;3.50;;
23388;SDS011;11867;51.198;11.966;2023-06-14T07:37:05;4.30;;;3.63;;
23388;SDS011;11867;51.198;11.966;2023-06-14T07:38:28;8.38;;;3.95;;
23388;SDS011;11867;51.198;11.966;2023-06-14T07:39:51;7.88;;;4.25;;
23388;SDS011;11867;51.198;11.966;2023-06-14T07:41:13;7.50;;;3.53;;
23388;SDS011;11867;51.198;11.966;2023-06-14T07:42:36;7.82;;;3.63;;
23388;SDS011;11867;51.198;11.966;2023-06-14T07:43:59;5.57;;;3.78;;
23388;SDS011;11867;51.198;11.966;2023-06-14T07:45:24;4.13;;;3.60;;
23388;SDS011;11867;51.198;11.966;2023-06-14T07:46:47;3.80;;;3.50;;
23388;SDS011;11867;51.198;11.966;2023-06-14T07:48:10;6.68;;;3.67;;
23388;SDS011;11867;51.198;11.966;2023-06-14T07:49:33;9.57;;;4.50;;
23388;SDS011;11867;51.198;11.966;2023-06-14T07:50:56;7.78;;;3.63;;
23388;SDS011;11867;51.198;11.966;2023-06-14T07:52:19;4.65;;;3.83;;
23388;SDS011;11867;51.198;11.966;2023-06-14T07:53:42;4.20;;;3.80;;
23388;SDS011;11867;51.198;11.966;2023-06-14T07:55:05;11.50;;;3.92;;
23388;SDS011;11867;51.198;11.966;2023-06-14T07:56:29;4.82;;;3.70;;
23388;SDS011;11867;51.198;11.966;2023-06-14T07:57:52;3.53;;;3.13;;
23388;SDS011;11867;51.198;11.966;2023-06-14T07:59:15;6.43;;;4.13;;
23388;SDS011;11867;51.198;11.966;2023-06-14T08:00:39;4.85;;;3.38;;
23388;SDS011;11867;51.198;11.966;2023-06-14T08:02:02;6.80;;;3.50;;
23388;SDS011;11867;51.198;11.966;2023-06-14T08:03:26;3.83;;;3.45;;
23388;SDS011;11867;51.198;11.966;2023-06-14T08:04:49;4.47;;;3.38;;
23388;SDS011;11867;51.198;11.966;2023-06-14T08:06:12;5.30;;;3.60;;
23388;SDS011;11867;51.198;11.966;2023-06-14T08:07:35;6.00;;;3.70;;
23388;SDS011;11867;51.198;11.966;2023-06-14T08:08:58;4.88;;;3.90;;
23388;SDS011;11867;51.198;11.966;2023-06-14T08:10:21;7.53;;;3.92;;
23388;SDS011;11867;51.198;11.966;2023-06-14T08:11:44;4.07;;;3.45;;
23388;SDS011;11867;51.198;11.966;2023-06-14T08:13:07;3.33;;;3.03;;
23388;SDS011;11867;51.198;11.966;2023-06-14T08:14:31;3.72;;;3.42;;